createdAt,value
2022-12-09T00:01:46.629Z,13.75
2022-12-09T00:04:14.980Z,9.53
2022-12-09T00:06:42.935Z,10.70
2022-12-09T00:09:15.894Z,8.60
2022-12-09T00:11:44.298Z,10.13
2022-12-09T00:14:12.570Z,9.47
2022-12-09T00:16:40.908Z,10.37
2022-12-09T00:19:08.881Z,15.00
2022-12-09T00:21:36.820Z,11.23
2022-12-09T00:24:07.597Z,4.07
2022-12-09T00:26:35.810Z,14.63
2022-12-09T00:29:04.769Z,12.57
2022-12-09T00:31:35.844Z,9.57
2022-12-09T00:34:07.268Z,10.23
2022-12-09T00:36:35.781Z,13.70
2022-12-09T00:39:04.545Z,13.63
2022-12-09T00:41:33.068Z,14.20
2022-12-09T00:44:01.257Z,12.13
2022-12-09T00:46:29.696Z,11.67
2022-12-09T00:48:58.125Z,12.35
2022-12-09T00:51:26.209Z,11.93
2022-12-09T00:53:56.185Z,10.60
2022-12-09T00:56:26.546Z,5.90
2022-12-09T00:58:56.368Z,8.80
2022-12-09T01:01:27.126Z,6.20
2022-12-09T01:03:55.367Z,9.53
2022-12-09T01:08:52.973Z,10.40
2022-12-09T01:11:25.517Z,10.17
2022-12-09T01:13:54.734Z,9.50
2022-12-09T01:16:25.229Z,9.97
2022-12-09T01:18:59.655Z,8.73
2022-12-09T01:21:29.438Z,7.90
2022-12-09T01:23:58.672Z,9.00
2022-12-09T01:26:27.139Z,6.23
2022-12-09T01:28:57.673Z,8.37
2022-12-09T01:31:28.207Z,7.47
2022-12-09T01:36:26.972Z,7.00
2022-12-09T01:38:56.593Z,7.07
2022-12-09T01:41:25.082Z,7.17
2022-12-09T01:44:13.055Z,7.93
2022-12-09T01:46:41.993Z,6.33
2022-12-09T01:49:15.482Z,8.03
2022-12-09T01:51:50.332Z,6.53
2022-12-09T01:54:19.268Z,10.00
2022-12-09T01:56:47.646Z,7.53
2022-12-09T01:59:16.571Z,9.90
2022-12-09T02:01:48.106Z,10.60
2022-12-09T02:04:17.922Z,8.37
2022-12-09T02:06:46.452Z,8.03
2022-12-09T02:09:16.232Z,7.07
2022-12-09T02:12:08.289Z,4.50
2022-12-09T02:15:04.704Z,6.00
2022-12-09T02:17:41.944Z,6.40
2022-12-09T02:20:23.723Z,7.53
2022-12-09T02:23:10.451Z,11.33
2022-12-09T02:25:51.474Z,10.70
2022-12-09T02:28:24.904Z,9.03
2022-12-09T02:31:13.710Z,9.33
2022-12-09T02:34:00.043Z,10.93
2022-12-09T02:36:36.332Z,9.68
2022-12-09T02:39:05.760Z,8.70
2022-12-09T02:41:36.196Z,10.70
2022-12-09T02:44:12.460Z,8.67
2022-12-09T02:46:42.537Z,9.27
2022-12-09T02:49:14.742Z,10.33
2022-12-09T02:51:45.740Z,9.70
2022-12-09T02:54:18.207Z,9.50
2022-12-09T02:56:56.540Z,10.47
2022-12-09T02:59:27.283Z,10.43
2022-12-09T03:02:12.266Z,10.50
2022-12-09T03:04:46.251Z,8.97
2022-12-09T03:07:26.989Z,10.73
2022-12-09T03:10:05.376Z,12.23
2022-12-09T03:12:35.628Z,10.03
2022-12-09T03:15:10.915Z,11.27
2022-12-09T03:17:40.919Z,12.53
2022-12-09T03:20:22.643Z,13.07
2022-12-09T03:22:53.837Z,12.80
2022-12-09T03:25:27.559Z,11.63
2022-12-09T03:28:04.107Z,12.10
2022-12-09T03:30:35.518Z,9.83
2022-12-09T03:33:05.075Z,11.80
2022-12-09T03:35:38.548Z,12.13
2022-12-09T03:38:09.666Z,11.50
2022-12-09T03:40:39.980Z,12.77
2022-12-09T03:43:15.632Z,13.13
2022-12-09T03:45:43.836Z,12.30
2022-12-09T03:48:13.231Z,14.13
2022-12-09T03:51:07.414Z,13.27
2022-12-09T03:53:46.728Z,14.47
2022-12-09T03:56:23.217Z,15.30
2022-12-09T03:58:55.357Z,15.93
2022-12-09T04:01:28.106Z,14.27
2022-12-09T04:03:57.558Z,11.97
2022-12-09T04:06:26.442Z,13.33
2022-12-09T04:08:58.080Z,12.70
2022-12-09T04:11:30.937Z,13.23
2022-12-09T04:13:59.010Z,14.63
2022-12-09T04:21:22.775Z,15.70
2022-12-09T04:26:23.095Z,15.18
2022-12-09T04:28:51.279Z,12.73
2022-12-09T04:31:20.632Z,14.00
2022-12-09T04:33:48.900Z,13.67
2022-12-09T04:36:18.731Z,12.73
2022-12-09T04:38:47.179Z,14.17
2022-12-09T04:41:16.142Z,15.10
2022-12-09T04:43:44.626Z,15.53
2022-12-09T04:46:14.891Z,15.67
2022-12-09T04:48:43.772Z,12.90
2022-12-09T04:51:13.739Z,14.47
2022-12-09T04:53:42.138Z,13.43
2022-12-09T04:56:19.059Z,13.10
2022-12-09T04:58:48.603Z,14.18
2022-12-09T05:01:22.643Z,13.77
2022-12-09T05:06:23.713Z,12.60
2022-12-09T05:08:52.065Z,14.90
2022-12-09T05:11:20.752Z,14.57
2022-12-09T05:13:49.165Z,13.67
2022-12-09T05:16:19.105Z,12.50
2022-12-09T05:18:48.601Z,14.10
2022-12-09T05:21:19.346Z,14.13
2022-12-09T05:23:48.051Z,12.63
2022-12-09T05:26:19.332Z,14.30
2022-12-09T05:28:47.469Z,14.30
2022-12-09T05:31:18.202Z,14.03
2022-12-09T05:33:47.149Z,15.57
2022-12-09T05:36:18.850Z,15.37
2022-12-09T05:38:49.096Z,13.63
2022-12-09T05:41:18.599Z,15.00
2022-12-09T05:43:47.178Z,14.57
2022-12-09T05:46:15.800Z,12.77
2022-12-09T05:48:44.303Z,13.33
2022-12-09T05:51:16.607Z,12.57
2022-12-09T05:53:44.481Z,15.10
2022-12-09T05:56:16.139Z,16.00
2022-12-09T05:58:44.398Z,17.73
2022-12-09T06:01:13.106Z,17.90
2022-12-09T06:03:41.947Z,16.47
2022-12-09T06:06:12.712Z,18.13
2022-12-09T06:08:42.368Z,16.60
2022-12-09T06:11:16.515Z,14.53
2022-12-09T06:13:45.331Z,12.77
2022-12-09T06:16:14.834Z,13.43
2022-12-09T06:18:43.003Z,14.13
2022-12-09T06:21:13.391Z,15.13
2022-12-09T06:23:42.329Z,14.27
2022-12-09T06:26:30.078Z,15.13
2022-12-09T06:28:58.462Z,15.27
2022-12-09T06:31:30.016Z,16.37
2022-12-09T06:33:59.660Z,16.93
2022-12-09T06:36:30.189Z,17.20
2022-12-09T06:39:07.626Z,17.77
2022-12-09T06:41:38.721Z,19.00
2022-12-09T06:44:06.815Z,19.10
2022-12-09T06:46:35.392Z,17.20
2022-12-09T06:49:03.889Z,15.77
2022-12-09T06:51:32.623Z,16.30
2022-12-09T06:54:00.963Z,15.33
2022-12-09T06:56:28.969Z,13.83
2022-12-09T07:01:26.284Z,14.23
2022-12-09T07:03:57.054Z,15.57
2022-12-09T07:06:40.287Z,14.20
2022-12-09T07:09:10.969Z,15.70
2022-12-09T07:11:40.471Z,16.57
2022-12-09T07:14:10.005Z,16.03
2022-12-09T07:16:39.121Z,15.87
2022-12-09T07:19:07.854Z,14.27
2022-12-09T07:21:36.756Z,15.53
2022-12-09T07:24:04.800Z,14.10
2022-12-09T07:29:06.024Z,13.83
2022-12-09T07:31:35.451Z,14.87
2022-12-09T07:34:04.888Z,14.80
2022-12-09T07:36:35.151Z,14.97
2022-12-09T07:39:08.261Z,15.47
2022-12-09T07:41:36.083Z,15.70
2022-12-09T07:44:04.183Z,16.65
2022-12-09T07:46:32.321Z,16.30
2022-12-09T07:49:02.667Z,14.13
2022-12-09T07:51:32.032Z,15.10
2022-12-09T07:54:00.352Z,15.53
2022-12-09T07:56:29.368Z,18.07
2022-12-09T07:58:58.161Z,19.60
2022-12-09T08:01:29.321Z,20.27
2022-12-09T08:03:58.213Z,20.83
2022-12-09T08:06:28.938Z,21.20
2022-12-09T08:09:07.584Z,20.33
2022-12-09T08:11:35.944Z,21.23
2022-12-09T08:14:11.448Z,20.00
2022-12-09T08:16:42.029Z,20.17
2022-12-09T08:19:11.108Z,20.03
2022-12-09T08:21:39.827Z,20.43
2022-12-09T08:24:08.821Z,15.30
2022-12-09T08:26:39.456Z,15.50
2022-12-09T08:29:14.321Z,15.47
2022-12-09T08:31:44.034Z,16.93
2022-12-09T08:34:13.299Z,18.20
2022-12-09T08:36:42.351Z,17.67
2022-12-09T08:39:12.443Z,18.27
2022-12-09T08:41:41.177Z,18.53
2022-12-09T08:44:12.927Z,17.60
2022-12-09T08:46:43.648Z,21.77
2022-12-09T08:49:12.945Z,20.90
2022-12-09T08:51:41.383Z,21.70
2022-12-09T08:54:10.825Z,21.70
2022-12-09T08:56:39.419Z,20.03
2022-12-09T08:59:07.531Z,19.63
2022-12-09T09:01:36.124Z,17.67
2022-12-09T09:04:09.569Z,18.37
2022-12-09T09:06:40.330Z,19.00
2022-12-09T09:09:10.853Z,19.53
2022-12-09T09:11:39.668Z,20.17
2022-12-09T09:14:10.822Z,20.40
2022-12-09T09:16:41.235Z,22.27
2022-12-09T09:19:18.474Z,23.93
2022-12-09T09:21:46.477Z,26.87
2022-12-09T09:24:18.352Z,24.73
2022-12-09T09:26:46.966Z,28.07
2022-12-09T09:29:16.846Z,30.10
2022-12-09T09:31:44.964Z,26.00
2022-12-09T09:34:13.242Z,23.47
2022-12-09T09:36:41.370Z,26.80
2022-12-09T09:39:10.452Z,27.63
2022-12-09T09:41:58.140Z,27.47
2022-12-09T09:44:46.284Z,27.27
2022-12-09T09:47:55.484Z,28.43
2022-12-09T09:50:38.933Z,30.50
2022-12-09T09:53:30.761Z,29.93
2022-12-09T09:56:35.323Z,31.77
2022-12-09T09:59:50.004Z,29.77
2022-12-09T10:02:32.420Z,34.63
2022-12-09T10:05:20.004Z,30.67
2022-12-09T10:08:27.028Z,35.00
2022-12-09T10:11:27.130Z,34.60
2022-12-09T10:14:16.326Z,32.43
2022-12-09T10:16:56.429Z,30.70
2022-12-09T10:19:36.083Z,31.70
2022-12-09T10:22:17.985Z,29.63
2022-12-09T10:24:56.353Z,31.73
2022-12-09T10:27:38.210Z,31.33
2022-12-09T10:30:07.195Z,29.93
2022-12-09T10:32:37.598Z,22.10
2022-12-09T10:35:24.939Z,30.00
2022-12-09T10:40:31.565Z,26.60
2022-12-09T10:43:18.553Z,29.85
2022-12-09T10:48:47.510Z,29.67
2022-12-09T10:51:27.925Z,29.00
2022-12-09T10:54:30.417Z,27.87
2022-12-09T10:57:30.525Z,25.70
2022-12-09T11:00:01.776Z,25.93
2022-12-09T11:02:33.726Z,24.10
2022-12-09T11:05:24.317Z,18.87
2022-12-09T11:07:54.130Z,21.23
2022-12-09T11:10:26.568Z,8.47
2022-12-09T11:13:05.553Z,13.60
2022-12-09T11:15:46.145Z,8.57
2022-12-09T11:18:21.449Z,7.60
2022-12-09T11:21:06.890Z,9.07
2022-12-09T11:23:35.645Z,7.63
2022-12-09T11:26:06.810Z,4.53
2022-12-09T11:28:38.444Z,6.47
2022-12-09T11:31:33.495Z,5.23
2022-12-09T11:34:24.383Z,4.33
2022-12-09T11:36:56.831Z,3.70
2022-12-09T11:39:35.656Z,4.40
2022-12-09T11:42:19.990Z,4.73
2022-12-09T11:44:59.594Z,2.87
2022-12-09T11:47:50.467Z,4.40
2022-12-09T11:50:32.463Z,3.87
2022-12-09T11:53:12.792Z,4.17
2022-12-09T11:56:15.252Z,3.37
2022-12-09T11:58:49.600Z,3.80
2022-12-09T12:01:51.604Z,4.73
2022-12-09T12:04:30.534Z,5.37
2022-12-09T12:07:22.104Z,4.63
2022-12-09T12:09:58.325Z,4.57
2022-12-09T12:12:31.836Z,3.87
2022-12-09T12:15:10.537Z,2.90
2022-12-09T12:17:43.590Z,4.00
2022-12-09T12:20:15.113Z,3.43
2022-12-09T12:23:13.322Z,4.00
2022-12-09T12:26:14.984Z,3.23
2022-12-09T12:29:07.300Z,5.73
2022-12-09T12:32:06.876Z,5.07
2022-12-09T12:35:17.461Z,3.83
2022-12-09T12:38:15.595Z,4.73
2022-12-09T12:40:58.447Z,5.70
2022-12-09T12:43:47.434Z,5.03
2022-12-09T12:46:41.505Z,5.87
2022-12-09T12:49:29.582Z,6.33
2022-12-09T12:52:57.992Z,6.80
2022-12-09T12:55:49.390Z,6.87
2022-12-09T12:58:35.992Z,7.37
2022-12-09T13:01:17.633Z,5.60
2022-12-09T13:03:55.826Z,6.03
2022-12-09T13:06:38.397Z,5.20
2022-12-09T13:09:12.820Z,5.30
2022-12-09T13:12:05.706Z,5.80
2022-12-09T13:15:03.606Z,5.93
2022-12-09T13:17:32.382Z,5.50
2022-12-09T13:23:01.073Z,4.10
2022-12-09T13:25:53.721Z,4.93
2022-12-09T13:28:30.978Z,4.20
2022-12-09T13:31:01.440Z,3.50
2022-12-09T13:33:52.627Z,3.70
2022-12-09T13:36:41.684Z,3.07
2022-12-09T13:39:41.700Z,3.17
2022-12-09T13:42:47.528Z,3.43
2022-12-09T13:45:35.484Z,3.58
2022-12-09T13:48:29.311Z,3.75
2022-12-09T13:51:00.241Z,3.42
2022-12-09T13:54:00.978Z,4.45
2022-12-09T13:56:33.029Z,2.42
2022-12-09T13:59:39.678Z,2.53
2022-12-09T14:02:24.976Z,2.40
2022-12-09T14:05:18.203Z,2.75
2022-12-09T14:08:18.727Z,2.13
2022-12-09T14:10:50.577Z,3.22
2022-12-09T14:13:29.182Z,2.83
2022-12-09T14:16:26.475Z,1.92
2022-12-09T14:18:55.907Z,3.95
2022-12-09T14:21:23.777Z,3.97
2022-12-09T14:24:11.541Z,3.65
2022-12-09T14:26:45.970Z,4.55
2022-12-09T14:29:52.873Z,7.10
2022-12-09T14:32:50.170Z,5.85
2022-12-09T14:35:44.926Z,5.75
2022-12-09T14:38:42.131Z,5.70
2022-12-09T14:41:30.365Z,5.70
2022-12-09T14:44:16.002Z,5.47
2022-12-09T14:46:49.286Z,4.23
2022-12-09T14:49:25.042Z,4.43
2022-12-09T14:52:03.580Z,4.95
2022-12-09T14:54:45.562Z,3.67
2022-12-09T14:57:26.749Z,3.97
2022-12-09T14:59:56.503Z,2.70
2022-12-09T15:02:30.452Z,4.22
2022-12-09T15:05:03.012Z,3.38
2022-12-09T15:07:34.587Z,4.07
2022-12-09T15:10:04.393Z,4.60
2022-12-09T15:12:39.602Z,3.83
2022-12-09T15:15:10.689Z,3.78
2022-12-09T15:17:45.456Z,2.40
2022-12-09T15:20:40.568Z,3.37
2022-12-09T15:23:48.691Z,2.70
2022-12-09T15:26:39.953Z,2.73
2022-12-09T15:29:18.488Z,3.77
2022-12-09T15:31:51.140Z,2.83
2022-12-09T15:34:26.266Z,2.27
2022-12-09T15:37:05.963Z,3.60
2022-12-09T15:39:52.711Z,2.30
2022-12-09T15:42:27.454Z,2.75
2022-12-09T15:45:19.432Z,4.00
2022-12-09T15:47:55.277Z,4.23
2022-12-09T15:50:33.356Z,3.50
2022-12-09T15:53:29.852Z,6.50
2022-12-09T15:56:12.496Z,6.37
2022-12-09T15:58:45.497Z,4.27
2022-12-09T16:01:36.313Z,4.40
2022-12-09T16:04:06.759Z,4.30
2022-12-09T16:06:37.845Z,3.40
2022-12-09T16:09:14.072Z,4.13
2022-12-09T16:11:46.033Z,4.33
2022-12-09T16:14:16.337Z,3.37
2022-12-09T16:17:16.572Z,4.43
2022-12-09T16:19:46.129Z,3.50
2022-12-09T16:22:27.116Z,3.90
2022-12-09T16:25:16.640Z,3.40
2022-12-09T16:27:49.249Z,2.43
2022-12-09T16:30:24.492Z,3.80
2022-12-09T16:32:55.939Z,4.50
2022-12-09T16:35:24.947Z,3.60
2022-12-09T16:38:00.891Z,4.18
2022-12-09T16:40:35.084Z,4.00
2022-12-09T16:43:19.100Z,5.07
2022-12-09T16:45:48.341Z,4.03
2022-12-09T16:48:17.578Z,3.07
2022-12-09T16:50:52.153Z,3.00
2022-12-09T16:53:27.624Z,3.33
2022-12-09T16:56:00.368Z,3.53
2022-12-09T16:58:32.154Z,3.50
2022-12-09T17:01:03.509Z,2.90
2022-12-09T17:03:40.291Z,3.30
2022-12-09T17:06:13.668Z,2.90
2022-12-09T17:08:42.965Z,3.10
2022-12-09T17:11:11.970Z,2.83
2022-12-09T17:13:40.169Z,4.63
2022-12-09T17:16:08.477Z,4.40
2022-12-09T17:18:36.899Z,4.60
2022-12-09T17:21:07.868Z,3.67
2022-12-09T17:23:39.983Z,4.77
2022-12-09T17:26:11.274Z,5.00
2022-12-09T17:28:40.227Z,4.90
2022-12-09T17:31:14.294Z,4.33
2022-12-09T17:33:43.875Z,4.53
2022-12-09T17:36:13.935Z,4.57
2022-12-09T17:38:42.170Z,4.00
2022-12-09T17:41:15.025Z,3.50
2022-12-09T17:43:46.204Z,4.37
2022-12-09T17:46:14.942Z,4.27
2022-12-09T17:48:42.853Z,4.30
2022-12-09T17:51:12.982Z,5.05
2022-12-09T17:53:44.207Z,5.90
2022-12-09T17:56:18.918Z,4.53
2022-12-09T17:58:48.313Z,5.07
2022-12-09T18:01:19.109Z,4.97
2022-12-09T18:03:56.435Z,2.43
2022-12-09T18:06:31.921Z,5.43
2022-12-09T18:09:00.400Z,5.07
2022-12-09T18:11:28.682Z,4.77
2022-12-09T18:13:57.908Z,4.60
2022-12-09T18:16:25.676Z,3.03
2022-12-09T18:18:53.668Z,4.78
2022-12-09T18:21:23.891Z,4.32
2022-12-09T18:23:52.980Z,4.50
2022-12-09T18:26:25.750Z,3.83
2022-12-09T18:28:57.707Z,4.97
2022-12-09T18:31:25.778Z,6.00
2022-12-09T18:36:24.413Z,3.58
2022-12-09T18:38:52.366Z,2.80
2022-12-09T18:41:22.751Z,6.40
2022-12-09T18:43:53.123Z,5.80
2022-12-09T18:46:26.844Z,5.40
2022-12-09T18:48:59.049Z,7.00
2022-12-09T18:51:27.642Z,5.30
2022-12-09T18:53:58.519Z,6.40
2022-12-09T18:56:27.315Z,5.10
2022-12-09T18:59:12.083Z,4.33
2022-12-09T19:01:43.139Z,5.97
2022-12-09T19:04:14.469Z,5.43
2022-12-09T19:06:45.161Z,7.37
2022-12-09T19:09:16.741Z,7.60
2022-12-09T19:11:46.347Z,5.47
2022-12-09T19:14:14.945Z,8.03
2022-12-09T19:16:44.124Z,8.27
2022-12-09T19:19:18.668Z,7.73
2022-12-09T19:21:47.472Z,3.43
2022-12-09T19:24:24.656Z,8.53
2022-12-09T19:26:55.045Z,8.63
2022-12-09T19:29:26.226Z,8.80
2022-12-09T19:31:54.745Z,7.23
2022-12-09T19:34:28.172Z,10.10
2022-12-09T19:37:01.559Z,8.93
2022-12-09T19:39:32.632Z,10.50
2022-12-09T19:42:02.600Z,10.13
2022-12-09T19:44:59.580Z,8.57
2022-12-09T19:47:18.247Z,10.57
2022-12-09T19:49:46.733Z,9.48
2022-12-09T19:52:14.498Z,11.27
2022-12-09T19:54:42.230Z,10.63
2022-12-09T19:57:10.742Z,11.63
2022-12-09T19:59:38.691Z,10.27
2022-12-09T20:04:48.661Z,10.50
2022-12-09T20:07:20.486Z,11.67
2022-12-09T20:09:48.412Z,11.80
2022-12-09T20:12:16.255Z,12.40
2022-12-09T20:14:44.404Z,12.10
2022-12-09T20:17:12.195Z,11.13
2022-12-09T20:19:40.541Z,13.23
2022-12-09T20:22:08.649Z,12.47
2022-12-09T20:28:19.054Z,12.10
2022-12-09T20:30:46.877Z,10.02
2022-12-09T20:33:14.743Z,11.88
2022-12-09T20:35:46.090Z,10.80
2022-12-09T20:38:14.725Z,11.00
2022-12-09T20:40:42.534Z,12.53
2022-12-09T20:43:10.348Z,13.70
2022-12-09T20:45:41.372Z,15.00
2022-12-09T20:48:09.068Z,9.30
2022-12-09T20:50:39.100Z,7.22
2022-12-09T20:53:06.889Z,5.87
2022-12-09T20:55:34.553Z,5.00
2022-12-09T20:58:06.311Z,5.68
2022-12-09T21:00:35.250Z,6.10
2022-12-09T21:03:04.757Z,5.20
2022-12-09T21:05:32.750Z,5.97
2022-12-09T21:08:00.826Z,5.95
2022-12-09T21:15:24.674Z,5.22
2022-12-09T21:17:52.280Z,4.97
2022-12-09T21:20:19.994Z,3.67
2022-12-09T21:23:04.417Z,3.85
2022-12-09T21:28:05.552Z,2.73
2022-12-09T21:30:34.139Z,4.40
2022-12-09T21:35:30.235Z,6.00
2022-12-09T21:37:58.590Z,5.22
2022-12-09T21:40:26.446Z,5.33
2022-12-09T21:42:56.255Z,6.13
2022-12-09T21:45:26.507Z,5.73
2022-12-09T21:47:55.322Z,6.03
2022-12-09T21:50:22.961Z,5.47
2022-12-09T21:52:50.967Z,7.40
2022-12-09T21:55:18.739Z,4.47
2022-12-09T21:57:46.440Z,5.13
2022-12-09T22:00:14.546Z,6.35
2022-12-09T22:02:44.454Z,6.95
2022-12-09T22:05:12.401Z,5.67
2022-12-09T22:07:40.340Z,5.80
2022-12-09T22:10:09.079Z,6.45
2022-12-09T22:12:37.608Z,5.90
2022-12-09T22:15:07.441Z,7.33
2022-12-09T22:17:35.276Z,6.60
2022-12-09T22:20:48.871Z,7.00
2022-12-09T22:22:53.659Z,7.30
2022-12-09T22:25:21.272Z,7.13
2022-12-09T22:27:49.159Z,6.65
2022-12-09T22:30:17.656Z,6.03
2022-12-09T22:32:50.533Z,5.77
2022-12-09T22:35:18.676Z,6.77
2022-12-09T22:37:47.518Z,6.25
2022-12-09T22:40:15.331Z,5.80
2022-12-09T22:42:42.979Z,5.57
2022-12-09T22:45:10.964Z,6.10
2022-12-09T22:47:39.018Z,5.07
2022-12-09T22:50:07.911Z,6.38
2022-12-09T22:52:35.754Z,5.13
2022-12-09T22:55:03.599Z,4.68
2022-12-09T22:57:33.735Z,5.05
2022-12-09T23:00:01.541Z,4.20
2022-12-09T23:02:29.621Z,4.10
2022-12-09T23:04:57.309Z,3.85
2022-12-09T23:07:25.208Z,4.03
2022-12-09T23:09:53.639Z,4.32
2022-12-09T23:12:21.386Z,3.73
2022-12-09T23:14:49.110Z,3.42
2022-12-09T23:17:16.940Z,4.40
2022-12-09T23:19:45.410Z,4.15
2022-12-09T23:22:13.195Z,4.00
2022-12-09T23:24:40.922Z,5.00
2022-12-09T23:27:10.459Z,3.80
2022-12-09T23:29:38.738Z,4.60
2022-12-09T23:32:06.568Z,4.53
2022-12-09T23:34:34.479Z,5.13
2022-12-09T23:37:10.884Z,5.75
2022-12-09T23:39:38.849Z,5.50
2022-12-09T23:42:06.511Z,6.80
2022-12-09T23:44:35.200Z,5.90
2022-12-09T23:47:02.907Z,6.40
2022-12-09T23:49:30.782Z,7.32
2022-12-09T23:51:58.905Z,7.25
2022-12-09T23:54:26.774Z,7.07
2022-12-09T23:56:54.427Z,6.65
2022-12-09T23:59:23.625Z,7.15
